createdAt,value
2023-03-05T00:00:55.847Z,3.87
2023-03-05T00:03:22.593Z,3.90
2023-03-05T00:05:49.471Z,4.03
2023-03-05T00:08:16.620Z,3.40
2023-03-05T00:10:43.291Z,4.33
2023-03-05T00:13:10.094Z,4.50
2023-03-05T00:15:41.462Z,4.40
2023-03-05T00:18:08.216Z,3.43
2023-03-05T00:20:35.288Z,4.00
2023-03-05T00:23:02.132Z,5.00
2023-03-05T00:25:29.269Z,4.70
2023-03-05T00:27:56.015Z,4.00
2023-03-05T00:30:22.682Z,5.17
2023-03-05T00:32:49.410Z,3.90
2023-03-05T00:35:16.173Z,5.27
2023-03-05T00:37:42.866Z,5.20
2023-03-05T00:40:10.570Z,5.20
2023-03-05T00:42:38.789Z,4.13
2023-03-05T00:45:07.412Z,4.40
2023-03-05T00:47:34.603Z,4.60
2023-03-05T00:50:01.761Z,5.20
2023-03-05T00:52:28.501Z,5.07
2023-03-05T00:54:55.288Z,5.53
2023-03-05T00:57:22.406Z,5.07
2023-03-05T00:59:49.113Z,5.00
2023-03-05T01:02:16.388Z,4.80
2023-03-05T01:04:45.888Z,5.23
2023-03-05T01:07:12.887Z,4.40
2023-03-05T01:09:39.817Z,5.20
2023-03-05T01:12:06.914Z,4.67
2023-03-05T01:14:35.560Z,4.80
2023-03-05T01:17:02.592Z,4.80
2023-03-05T01:19:29.373Z,5.30
2023-03-05T01:21:56.231Z,5.33
2023-03-05T01:24:23.180Z,5.47
2023-03-05T01:26:49.901Z,4.97
2023-03-05T01:29:16.680Z,5.13
2023-03-05T01:31:43.655Z,4.20
2023-03-05T01:34:10.810Z,5.27
2023-03-05T01:36:37.564Z,5.10
2023-03-05T01:39:04.530Z,5.43
2023-03-05T01:41:31.268Z,4.80
2023-03-05T01:43:58.030Z,5.40
2023-03-05T01:46:39.787Z,4.90
2023-03-05T01:49:29.550Z,4.60
2023-03-05T01:52:18.043Z,4.33
2023-03-05T01:54:49.646Z,4.60
2023-03-05T01:57:21.375Z,4.80
2023-03-05T01:59:52.745Z,4.50
2023-03-05T02:02:22.021Z,5.23
2023-03-05T02:05:17.744Z,4.23
2023-03-05T02:07:45.287Z,7.00
2023-03-05T02:10:52.572Z,4.97
2023-03-05T02:13:32.255Z,4.93
2023-03-05T02:16:01.178Z,6.60
2023-03-05T02:18:28.342Z,6.17
2023-03-05T02:20:58.044Z,6.50
2023-03-05T02:23:28.821Z,7.47
2023-03-05T02:25:55.783Z,6.33
2023-03-05T02:28:44.325Z,5.73
2023-03-05T02:31:16.610Z,6.60
2023-03-05T02:33:43.702Z,6.07
2023-03-05T02:36:12.052Z,6.87
2023-03-05T02:38:39.862Z,6.40
2023-03-05T02:41:06.626Z,7.83
2023-03-05T02:43:33.407Z,6.30
2023-03-05T02:46:00.199Z,7.27
2023-03-05T02:48:27.460Z,6.77
2023-03-05T02:50:55.011Z,8.23
2023-03-05T02:53:23.130Z,7.00
2023-03-05T02:55:50.225Z,7.00
2023-03-05T02:58:17.393Z,7.23
2023-03-05T03:00:46.592Z,7.30
2023-03-05T03:03:14.055Z,7.33
2023-03-05T03:05:40.936Z,6.33
2023-03-05T03:08:07.934Z,7.43
2023-03-05T03:10:35.108Z,6.43
2023-03-05T03:13:02.364Z,6.67
2023-03-05T03:15:29.108Z,6.57
2023-03-05T03:17:56.121Z,7.20
2023-03-05T03:20:23.232Z,6.20
2023-03-05T03:22:50.074Z,5.17
2023-03-05T03:25:19.244Z,6.70
2023-03-05T03:27:46.351Z,6.60
2023-03-05T03:30:14.331Z,5.83
2023-03-05T03:32:41.220Z,6.23
2023-03-05T03:35:08.737Z,5.07
2023-03-05T03:37:35.443Z,5.37
2023-03-05T03:40:02.264Z,4.83
2023-03-05T03:42:29.008Z,5.93
2023-03-05T03:44:56.091Z,5.07
2023-03-05T03:47:23.221Z,5.07
2023-03-05T03:49:53.336Z,5.53
2023-03-05T03:52:20.675Z,5.37
2023-03-05T03:54:47.428Z,5.93
2023-03-05T03:57:14.124Z,5.40
2023-03-05T03:59:40.865Z,4.47
2023-03-05T04:02:07.976Z,5.57
2023-03-05T04:04:35.157Z,4.50
2023-03-05T04:07:01.919Z,4.60
2023-03-05T04:09:28.606Z,5.73
2023-03-05T04:11:55.701Z,4.20
2023-03-05T04:14:22.392Z,5.20
2023-03-05T04:16:49.120Z,4.90
2023-03-05T04:19:15.800Z,5.37
2023-03-05T04:21:42.544Z,4.10
2023-03-05T04:24:09.394Z,4.73
2023-03-05T04:26:36.320Z,5.03
2023-03-05T04:29:03.362Z,5.37
2023-03-05T04:31:30.106Z,5.03
2023-03-05T04:33:56.824Z,6.10
2023-03-05T04:36:24.131Z,4.80
2023-03-05T04:38:50.819Z,5.70
2023-03-05T04:41:17.563Z,6.03
2023-03-05T04:43:44.690Z,5.50
2023-03-05T04:46:11.453Z,5.27
2023-03-05T04:48:38.123Z,5.37
2023-03-05T04:51:08.000Z,5.47
2023-03-05T04:53:36.017Z,5.20
2023-03-05T04:56:02.784Z,6.10
2023-03-05T04:58:29.559Z,5.40
2023-03-05T05:01:04.841Z,5.30
2023-03-05T05:03:32.576Z,5.20
2023-03-05T05:06:00.247Z,5.30
2023-03-05T05:08:28.158Z,5.63
2023-03-05T05:10:58.950Z,5.70
2023-03-05T05:13:26.149Z,5.30
2023-03-05T05:15:53.169Z,5.57
2023-03-05T05:18:21.446Z,5.60
2023-03-05T05:20:48.666Z,5.90
2023-03-05T05:23:15.631Z,5.40
2023-03-05T05:25:43.242Z,5.60
2023-03-05T05:28:11.187Z,5.13
2023-03-05T05:30:38.590Z,5.83
2023-03-05T05:33:05.277Z,5.53
2023-03-05T05:35:32.047Z,5.13
2023-03-05T05:37:59.297Z,5.53
2023-03-05T05:40:26.083Z,5.83
2023-03-05T05:42:53.182Z,4.30
2023-03-05T05:45:20.127Z,4.50
2023-03-05T05:47:46.890Z,5.13
2023-03-05T05:50:14.443Z,4.87
2023-03-05T05:52:41.218Z,4.90
2023-03-05T05:55:08.376Z,5.13
2023-03-05T05:57:35.552Z,4.30
2023-03-05T06:00:04.844Z,5.70
2023-03-05T06:02:31.607Z,6.03
2023-03-05T06:04:58.455Z,5.40
2023-03-05T06:07:25.564Z,5.50
2023-03-05T06:09:52.687Z,6.00
2023-03-05T06:12:19.835Z,5.60
2023-03-05T06:14:46.489Z,5.90
2023-03-05T06:17:21.907Z,6.20
2023-03-05T06:19:55.325Z,6.13
2023-03-05T06:22:22.015Z,6.00
2023-03-05T06:24:48.678Z,7.50
2023-03-05T06:27:15.781Z,7.00
2023-03-05T06:29:42.870Z,6.83
2023-03-05T06:32:09.605Z,6.40
2023-03-05T06:34:36.760Z,5.77
2023-03-05T06:37:03.514Z,6.53
2023-03-05T06:39:31.567Z,6.97
2023-03-05T06:41:58.458Z,6.97
2023-03-05T06:44:25.850Z,6.00
2023-03-05T06:46:53.009Z,5.57
2023-03-05T06:49:19.717Z,6.10
2023-03-05T06:51:46.860Z,5.87
2023-03-05T06:54:15.656Z,6.67
2023-03-05T06:56:45.409Z,6.50
2023-03-05T06:59:14.190Z,6.93
2023-03-05T07:01:41.173Z,6.20
2023-03-05T07:04:08.259Z,6.80
2023-03-05T07:06:38.270Z,6.97
2023-03-05T07:09:07.065Z,5.90
2023-03-05T07:11:34.338Z,6.20
2023-03-05T07:14:01.883Z,6.20
2023-03-05T07:16:31.644Z,5.50
2023-03-05T07:19:00.362Z,4.87
2023-03-05T07:21:29.757Z,6.13
2023-03-05T07:23:58.314Z,5.67
2023-03-05T07:26:25.628Z,5.47
2023-03-05T07:28:52.593Z,5.90
2023-03-05T07:31:22.224Z,5.80
2023-03-05T07:33:50.635Z,5.13
2023-03-05T07:36:17.881Z,5.87
2023-03-05T07:38:44.980Z,5.87
2023-03-05T07:41:14.075Z,5.73
2023-03-05T07:43:41.190Z,5.43
2023-03-05T07:46:09.795Z,4.87
2023-03-05T07:48:36.667Z,4.97
2023-03-05T07:51:06.080Z,3.83
2023-03-05T07:53:33.198Z,3.90
2023-03-05T07:55:59.926Z,3.77
2023-03-05T07:58:26.660Z,3.20
2023-03-05T08:00:53.790Z,3.57
2023-03-05T08:03:20.972Z,4.27
2023-03-05T08:05:47.710Z,5.00
2023-03-05T08:08:14.693Z,4.10
2023-03-05T08:10:41.402Z,4.30
2023-03-05T08:13:08.272Z,4.40
2023-03-05T08:15:35.404Z,4.40
2023-03-05T08:18:02.148Z,4.73
2023-03-05T08:20:28.880Z,4.87
2023-03-05T08:22:55.586Z,4.57
2023-03-05T08:25:22.719Z,4.40
2023-03-05T08:27:49.637Z,3.60
2023-03-05T08:30:19.754Z,4.50
2023-03-05T08:32:48.138Z,4.53
2023-03-05T08:35:14.852Z,4.87
2023-03-05T08:37:41.519Z,4.70
2023-03-05T08:40:08.971Z,4.47
2023-03-05T08:42:36.119Z,4.77
2023-03-05T08:45:02.973Z,4.20
2023-03-05T08:47:29.748Z,4.90
2023-03-05T08:49:57.548Z,4.20
2023-03-05T08:52:25.136Z,4.40
2023-03-05T08:54:51.961Z,4.37
2023-03-05T08:57:18.682Z,3.70
2023-03-05T08:59:45.395Z,3.90
2023-03-05T09:02:15.078Z,3.50
2023-03-05T09:04:42.222Z,3.97
2023-03-05T09:07:09.387Z,4.60
2023-03-05T09:09:37.075Z,3.77
2023-03-05T09:12:04.079Z,4.60
2023-03-05T09:14:30.833Z,5.67
2023-03-05T09:16:58.086Z,4.90
2023-03-05T09:19:24.947Z,4.23
2023-03-05T09:21:51.926Z,4.07
2023-03-05T09:24:18.618Z,4.10
2023-03-05T09:26:45.820Z,3.40
2023-03-05T09:29:12.577Z,2.90
2023-03-05T09:31:40.049Z,3.23
2023-03-05T09:34:08.264Z,3.30
2023-03-05T09:36:35.370Z,3.40
2023-03-05T09:39:02.086Z,3.30
2023-03-05T09:41:40.791Z,3.50
2023-03-05T09:44:44.577Z,3.60
2023-03-05T09:47:17.455Z,3.70
2023-03-05T09:50:10.927Z,3.80
2023-03-05T09:52:52.596Z,3.47
2023-03-05T09:55:40.392Z,3.33
2023-03-05T09:58:19.672Z,3.20
2023-03-05T10:00:54.698Z,3.70
2023-03-05T10:03:35.527Z,3.37
2023-03-05T10:06:02.359Z,3.10
2023-03-05T10:08:57.167Z,3.20
2023-03-05T10:11:40.019Z,3.80
2023-03-05T10:14:13.838Z,3.60
2023-03-05T10:16:57.289Z,3.23
2023-03-05T10:19:55.802Z,3.63
2023-03-05T10:22:41.955Z,3.20
2023-03-05T10:25:23.684Z,3.00
2023-03-05T10:28:06.019Z,2.37
2023-03-05T10:30:39.494Z,2.63
2023-03-05T10:33:59.883Z,2.73
2023-03-05T10:37:21.764Z,2.70
2023-03-05T10:39:57.079Z,3.37
2023-03-05T10:42:45.647Z,2.80
2023-03-05T10:45:22.570Z,3.00
2023-03-05T10:47:51.319Z,3.73
2023-03-05T10:50:20.377Z,3.20
2023-03-05T10:52:57.398Z,2.90
2023-03-05T10:55:24.382Z,2.67
2023-03-05T10:57:51.183Z,2.80
2023-03-05T11:00:23.356Z,2.20
2023-03-05T11:03:02.708Z,3.10
2023-03-05T11:05:38.634Z,3.10
2023-03-05T11:08:23.589Z,2.70
2023-03-05T11:11:03.872Z,2.33
2023-03-05T11:13:32.811Z,2.67
2023-03-05T11:16:04.899Z,2.30
2023-03-05T11:18:34.747Z,2.67
2023-03-05T11:21:27.587Z,2.07
2023-03-05T11:24:05.917Z,2.30
2023-03-05T11:26:33.658Z,2.17
2023-03-05T11:29:03.307Z,2.33
2023-03-05T11:31:33.001Z,2.50
2023-03-05T11:34:02.518Z,2.30
2023-03-05T11:36:33.943Z,3.20
2023-03-05T11:39:11.655Z,2.60
2023-03-05T11:41:59.009Z,2.67
2023-03-05T11:44:35.176Z,2.93
2023-03-05T11:47:23.536Z,2.67
2023-03-05T11:49:55.196Z,1.70
2023-03-05T11:52:26.558Z,1.90
2023-03-05T11:55:30.481Z,1.80
2023-03-05T11:58:24.822Z,1.97
2023-03-05T12:00:51.912Z,1.80
2023-03-05T12:03:22.759Z,1.97
2023-03-05T12:06:02.434Z,2.20
2023-03-05T12:08:34.110Z,1.73
2023-03-05T12:11:07.078Z,1.90
2023-03-05T12:13:45.808Z,1.67
2023-03-05T12:16:33.346Z,1.73
2023-03-05T12:19:08.743Z,1.47
2023-03-05T12:21:41.176Z,1.73
2023-03-05T12:24:24.325Z,2.30
2023-03-05T12:27:04.590Z,1.40
2023-03-05T12:29:41.784Z,2.30
2023-03-05T12:32:25.463Z,2.00
2023-03-05T12:35:36.875Z,2.40
2023-03-05T12:38:26.673Z,2.30
2023-03-05T12:41:13.932Z,2.30
2023-03-05T12:43:42.487Z,1.90
2023-03-05T12:46:29.355Z,2.40
2023-03-05T12:48:56.228Z,2.30
2023-03-05T12:51:39.720Z,1.80
2023-03-05T12:54:30.423Z,2.20
2023-03-05T12:57:05.531Z,2.50
2023-03-05T12:59:44.802Z,1.70
2023-03-05T13:02:26.529Z,2.60
2023-03-05T13:05:00.017Z,1.77
2023-03-05T13:07:26.900Z,2.40
2023-03-05T13:09:58.797Z,2.20
2023-03-05T13:12:28.870Z,2.40
2023-03-05T13:14:57.772Z,1.80
2023-03-05T13:17:34.813Z,1.90
2023-03-05T13:20:22.587Z,2.40
2023-03-05T13:23:02.427Z,2.43
2023-03-05T13:25:29.615Z,2.30
2023-03-05T13:28:14.090Z,2.87
2023-03-05T13:30:59.497Z,2.60
2023-03-05T13:33:29.678Z,2.30
2023-03-05T13:35:56.698Z,3.10
2023-03-05T13:38:23.760Z,2.27
2023-03-05T13:41:11.637Z,2.63
2023-03-05T13:43:51.754Z,1.80
2023-03-05T13:46:30.466Z,2.40
2023-03-05T13:49:15.911Z,2.10
2023-03-05T13:51:43.882Z,2.63
2023-03-05T13:54:15.733Z,2.03
2023-03-05T13:56:56.481Z,2.53
2023-03-05T13:59:26.416Z,1.97
2023-03-05T14:01:54.480Z,1.63
2023-03-05T14:04:23.833Z,1.77
2023-03-05T14:07:24.859Z,2.20
2023-03-05T14:09:52.465Z,1.60
2023-03-05T14:12:40.725Z,1.50
2023-03-05T14:15:28.449Z,2.03
2023-03-05T14:18:08.957Z,2.17
2023-03-05T14:20:35.677Z,2.00
2023-03-05T14:23:34.595Z,2.30
2023-03-05T14:26:29.617Z,1.60
2023-03-05T14:29:07.039Z,2.13
2023-03-05T14:31:48.711Z,2.47
2023-03-05T14:34:36.930Z,2.10
2023-03-05T14:37:07.163Z,2.40
2023-03-05T14:39:46.299Z,2.80
2023-03-05T14:42:25.323Z,2.90
2023-03-05T14:44:52.134Z,1.70
2023-03-05T14:47:18.892Z,2.83
2023-03-05T14:49:45.735Z,2.03
2023-03-05T14:52:17.033Z,2.30
2023-03-05T14:54:44.216Z,2.70
2023-03-05T14:57:16.866Z,2.10
2023-03-05T14:59:43.708Z,2.30
2023-03-05T15:02:22.855Z,2.30
2023-03-05T15:04:49.853Z,2.00
2023-03-05T15:07:31.492Z,2.03
2023-03-05T15:09:59.734Z,2.23
2023-03-05T15:12:26.866Z,2.10
2023-03-05T15:14:55.603Z,2.00
2023-03-05T15:17:34.256Z,1.53
2023-03-05T15:20:01.091Z,1.60
2023-03-05T15:22:27.942Z,2.67
2023-03-05T15:24:54.688Z,2.53
2023-03-05T15:27:21.445Z,2.33
2023-03-05T15:29:48.261Z,2.30
2023-03-05T15:32:15.091Z,2.20
2023-03-05T15:34:42.393Z,2.60
2023-03-05T15:37:09.293Z,2.40
2023-03-05T15:39:36.029Z,2.40
2023-03-05T15:42:03.675Z,2.00
2023-03-05T15:44:31.623Z,2.00
2023-03-05T15:46:58.471Z,2.90
2023-03-05T15:49:25.935Z,2.70
2023-03-05T15:51:54.944Z,2.73
2023-03-05T15:54:21.737Z,3.53
2023-03-05T15:56:48.947Z,3.13
2023-03-05T15:59:15.977Z,1.93
2023-03-05T16:01:49.049Z,2.73
2023-03-05T16:04:16.870Z,2.07
2023-03-05T16:06:48.971Z,2.40
2023-03-05T16:09:17.571Z,5.77
2023-03-05T16:11:48.074Z,2.33
2023-03-05T16:14:22.619Z,2.50
2023-03-05T16:16:50.759Z,2.23
2023-03-05T16:19:19.499Z,1.80
2023-03-05T16:21:46.552Z,1.80
2023-03-05T16:24:13.822Z,2.27
2023-03-05T16:26:41.719Z,4.10
2023-03-05T16:29:09.017Z,3.63
2023-03-05T16:31:42.972Z,3.70
2023-03-05T16:34:10.580Z,3.20
2023-03-05T16:36:37.341Z,2.57
2023-03-05T16:39:05.520Z,2.07
2023-03-05T16:41:32.605Z,2.80
2023-03-05T16:44:00.017Z,2.80
2023-03-05T16:49:09.164Z,2.70
2023-03-05T16:51:36.396Z,3.50
2023-03-05T16:54:04.146Z,3.17
2023-03-05T16:56:30.944Z,3.60
2023-03-05T16:58:57.716Z,2.80
2023-03-05T17:01:24.959Z,2.87
2023-03-05T17:03:53.460Z,3.70
2023-03-05T17:06:23.829Z,4.00
2023-03-05T17:08:51.674Z,2.73
2023-03-05T17:11:19.244Z,2.60
2023-03-05T17:13:48.868Z,3.43
2023-03-05T17:16:18.172Z,2.30
2023-03-05T17:18:45.375Z,3.20
2023-03-05T17:21:12.834Z,3.03
2023-03-05T17:23:40.657Z,3.33
2023-03-05T17:26:16.545Z,2.93
2023-03-05T17:28:44.493Z,2.97
2023-03-05T17:31:12.769Z,2.73
2023-03-05T17:33:41.555Z,3.27
2023-03-05T17:36:20.354Z,3.40
2023-03-05T17:38:47.915Z,3.70
2023-03-05T17:41:16.195Z,3.17
2023-03-05T17:43:43.443Z,3.30
2023-03-05T17:46:10.870Z,3.00
2023-03-05T17:48:39.152Z,3.73
2023-03-05T17:51:07.334Z,2.67
2023-03-05T17:53:35.148Z,2.83
2023-03-05T17:56:02.416Z,3.37
2023-03-05T17:58:29.149Z,2.97
2023-03-05T18:00:55.908Z,2.83
2023-03-05T18:03:22.698Z,3.33
2023-03-05T18:05:49.497Z,2.80
2023-03-05T18:08:16.289Z,2.60
2023-03-05T18:10:43.077Z,3.70
2023-03-05T18:13:09.920Z,3.87
2023-03-05T18:15:38.164Z,3.20
2023-03-05T18:18:05.123Z,3.87
2023-03-05T18:20:36.563Z,3.47
2023-03-05T18:23:04.863Z,3.47
2023-03-05T18:25:32.294Z,3.70
2023-03-05T18:28:03.590Z,3.93
2023-03-05T18:30:31.140Z,3.30
2023-03-05T18:32:58.291Z,3.77
2023-03-05T18:35:25.270Z,3.70
2023-03-05T18:37:51.999Z,3.80
2023-03-05T18:40:21.893Z,3.10
2023-03-05T18:42:49.068Z,2.63
2023-03-05T18:45:23.285Z,3.00
2023-03-05T18:47:54.056Z,4.70
2023-03-05T18:50:22.259Z,4.63
2023-03-05T18:52:49.053Z,3.63
2023-03-05T18:55:19.038Z,4.57
2023-03-05T18:57:46.373Z,3.50
2023-03-05T19:00:19.788Z,3.77
2023-03-05T19:02:46.933Z,3.80
2023-03-05T19:05:15.955Z,3.80
2023-03-05T19:07:43.058Z,4.13
2023-03-05T19:10:11.475Z,4.27
2023-03-05T19:12:45.270Z,5.20
2023-03-05T19:15:13.244Z,3.57
2023-03-05T19:17:40.501Z,4.30
2023-03-05T19:20:08.292Z,3.77
2023-03-05T19:22:35.450Z,3.60
2023-03-05T19:25:02.908Z,4.50
2023-03-05T19:27:29.711Z,4.47
2023-03-05T19:29:56.679Z,5.10
2023-03-05T19:32:23.951Z,3.40
2023-03-05T19:34:54.297Z,3.63
2023-03-05T19:37:21.359Z,3.90
2023-03-05T19:39:48.555Z,4.13
2023-03-05T19:42:15.570Z,3.60
2023-03-05T19:44:42.340Z,4.63
2023-03-05T19:47:09.606Z,4.80
2023-03-05T19:49:36.316Z,5.00
2023-03-05T19:52:04.259Z,4.30
2023-03-05T19:54:31.094Z,4.87
2023-03-05T19:56:58.897Z,5.30
2023-03-05T19:59:25.841Z,5.40
2023-03-05T20:01:52.720Z,4.87
2023-03-05T20:04:22.652Z,5.50
2023-03-05T20:06:49.774Z,4.27
2023-03-05T20:09:16.868Z,4.80
2023-03-05T20:11:44.416Z,4.20
2023-03-05T20:14:14.432Z,4.73
2023-03-05T20:16:43.143Z,5.33
2023-03-05T20:19:17.539Z,4.40
2023-03-05T20:21:45.153Z,4.53
2023-03-05T20:24:16.146Z,4.83
2023-03-05T20:26:44.027Z,4.67
2023-03-05T20:29:12.110Z,4.47
2023-03-05T20:31:39.289Z,3.80
2023-03-05T20:34:09.287Z,4.97
2023-03-05T20:36:36.115Z,3.70
2023-03-05T20:39:04.621Z,4.30
2023-03-05T20:41:32.001Z,3.83
2023-03-05T20:43:58.732Z,3.90
2023-03-05T20:46:31.031Z,4.73
2023-03-05T20:49:00.473Z,4.77
2023-03-05T20:51:30.695Z,3.30
2023-03-05T20:54:02.530Z,3.20
2023-03-05T20:56:32.302Z,3.60
2023-03-05T20:59:04.965Z,2.80
2023-03-05T21:01:33.581Z,3.10
2023-03-05T21:04:01.432Z,3.57
2023-03-05T21:06:29.879Z,3.00
2023-03-05T21:08:57.062Z,2.90
2023-03-05T21:11:23.843Z,2.93
2023-03-05T21:13:50.861Z,3.13
2023-03-05T21:16:20.582Z,3.33
2023-03-05T21:18:48.041Z,3.80
2023-03-05T21:21:14.965Z,3.03
2023-03-05T21:23:41.954Z,3.03
2023-03-05T21:26:09.150Z,3.90
2023-03-05T21:28:36.316Z,3.40
2023-03-05T21:31:14.930Z,3.90
2023-03-05T21:33:42.205Z,4.10
2023-03-05T21:36:09.098Z,4.60
2023-03-05T21:38:36.095Z,3.73
2023-03-05T21:41:03.441Z,4.30
2023-03-05T21:43:31.380Z,4.03
2023-03-05T21:46:00.100Z,3.80
2023-03-05T21:48:26.983Z,3.13
2023-03-05T21:50:55.322Z,3.30
2023-03-05T21:53:22.894Z,3.93
2023-03-05T21:56:02.577Z,2.80
2023-03-05T21:58:34.335Z,4.27
2023-03-05T22:01:01.377Z,4.10
2023-03-05T22:03:29.078Z,3.70
2023-03-05T22:05:56.938Z,3.87
2023-03-05T22:08:24.212Z,4.03
2023-03-05T22:10:51.244Z,4.87
2023-03-05T22:13:20.141Z,3.53
2023-03-05T22:15:55.194Z,3.83
2023-03-05T22:18:27.697Z,4.00
2023-03-05T22:20:55.412Z,4.20
2023-03-05T22:23:24.325Z,4.00
2023-03-05T22:26:06.042Z,3.60
2023-03-05T22:28:33.750Z,3.30
2023-03-05T22:31:00.709Z,4.10
2023-03-05T22:33:27.511Z,4.10
2023-03-05T22:35:54.699Z,3.27
2023-03-05T22:38:21.935Z,3.50
2023-03-05T22:40:49.911Z,4.40
2023-03-05T22:43:18.434Z,3.60
2023-03-05T22:45:45.272Z,3.77
2023-03-05T22:48:12.417Z,4.30
2023-03-05T22:50:40.982Z,4.07
2023-03-05T22:53:08.472Z,4.17
2023-03-05T22:55:39.091Z,3.70
2023-03-05T22:58:05.860Z,3.73
2023-03-05T23:00:32.644Z,4.07
2023-03-05T23:02:59.779Z,4.33
2023-03-05T23:05:26.665Z,4.10
2023-03-05T23:07:53.408Z,4.20
2023-03-05T23:10:27.151Z,4.40
2023-03-05T23:12:55.987Z,4.63
2023-03-05T23:15:29.154Z,4.10
2023-03-05T23:17:56.104Z,4.30
2023-03-05T23:20:25.886Z,4.50
2023-03-05T23:22:53.580Z,4.50
2023-03-05T23:25:20.907Z,4.77
2023-03-05T23:27:48.219Z,5.30
2023-03-05T23:30:21.789Z,4.93
2023-03-05T23:33:22.101Z,5.00
2023-03-05T23:35:59.996Z,4.53
2023-03-05T23:38:29.113Z,5.30
2023-03-05T23:40:59.129Z,4.50
2023-03-05T23:43:27.470Z,4.37
2023-03-05T23:45:57.363Z,4.90
2023-03-05T23:48:25.710Z,4.77
2023-03-05T23:50:53.010Z,5.00
2023-03-05T23:53:25.497Z,5.00
2023-03-05T23:55:52.685Z,4.60
2023-03-05T23:58:22.834Z,5.43
